Time;durP1;ratioP1;P1;durP2;ratioP2;P2;SDS_P1;SDS_P2;PMS_P1;PMS_P2;Temp;Humidity;BMP_temperature;BMP_pressure;BME280_temperature;BME280_humidity;BME280_pressure;Samples;Min_cycle;Max_cycle;Signal;HPM_P1;HPM_P2
2022/10/28 00:01:22;;;;;;;30.00;14.85;;;;;;;15.07;90.23;101702.28;5063218;28;20025;-75
2022/10/28 00:03:50;;;;;;;29.48;14.70;;;;;;;15.01;90.56;101700.41;5063246;28;20040;-75
2022/10/28 00:06:20;;;;;;;30.63;14.57;;;;;;;14.99;90.46;101701.25;5062862;28;20086;-75
2022/10/28 00:08:45;;;;;;;28.10;14.95;;;;;;;14.98;90.85;101695.13;5063040;28;20170;-75
2022/10/28 00:11:15;;;;;;;24.05;14.13;;;;;;;14.98;90.77;101704.75;5062737;28;20037;-75
2022/10/28 00:13:42;;;;;;;28.00;14.57;;;;;;;14.95;91.01;101695.06;5063054;28;20283;-75
2022/10/28 00:16:10;;;;;;;28.60;15.25;;;;;;;14.92;91.63;101706.38;5063035;28;20086;-76
2022/10/28 00:18:36;;;;;;;29.65;14.60;;;;;;;14.85;91.64;101703.63;5063242;28;20027;-67
2022/10/28 00:21:12;;;;;;;28.95;15.05;;;;;;;14.77;91.99;101708.69;5062698;28;20333;-67
2022/10/28 00:23:37;;;;;;;26.77;13.90;;;;;;;14.69;91.64;101703.28;5062852;28;20076;-67
2022/10/28 00:26:09;;;;;;;32.30;15.48;;;;;;;14.66;91.18;101703.25;5062730;28;20029;-67
2022/10/28 00:28:38;;;;;;;34.55;17.17;;;;;;;14.63;91.14;101697.94;5062922;28;20040;-67
2022/10/28 00:31:09;;;;;;;29.27;17.23;;;;;;;14.60;90.62;101700.47;5062791;28;20177;-67
2022/10/28 00:33:34;;;;;;;28.70;15.77;;;;;;;14.57;90.68;101695.13;5061667;28;20049;-67
2022/10/28 00:36:15;;;;;;;35.13;17.35;;;;;;;14.53;91.12;101690.69;5063142;28;20137;-67
2022/10/28 00:38:42;;;;;;;27.65;15.48;;;;;;;14.51;91.42;101692.38;5063038;28;20149;-68
2022/10/28 00:41:10;;;;;;;31.77;16.58;;;;;;;14.46;91.38;101694.03;5062704;28;20031;-67
2022/10/28 00:43:36;;;;;;;32.85;17.50;;;;;;;14.46;91.56;101691.41;5062611;28;20296;-67
2022/10/28 00:46:05;;;;;;;37.05;17.63;;;;;;;14.44;91.31;101691.38;5062439;28;20031;-67
2022/10/28 00:48:30;;;;;;;30.47;16.10;;;;;;;14.46;91.74;101696.66;5062486;28;20028;-75
2022/10/28 00:50:56;;;;;;;33.05;17.95;;;;;;;14.42;91.08;101688.75;5062576;28;20303;-75
2022/10/28 00:53:27;;;;;;;31.80;15.82;;;;;;;14.40;91.15;101687.78;5062533;28;20238;-75
2022/10/28 00:55:54;;;;;;;27.77;15.30;;;;;;;14.37;91.24;101677.25;5065649;28;20413;-75
2022/10/28 00:58:23;;;;;;;32.55;16.27;;;;;;;14.35;91.59;101672.81;5069144;28;20043;-76
2022/10/28 01:00:48;;;;;;;;;;;;;;;14.43;90.13;101664.25;5069539;28;20025;-75
2022/10/28 01:03:15;;;;;;;34.40;16.80;;;;;;;14.34;91.35;101656.22;5069150;28;19911;-76
2022/10/28 01:05:42;;;;;;;40.47;16.13;;;;;;;14.30;91.31;101659.63;5084577;28;20044;-75
2022/10/28 01:08:08;;;;;;;28.92;14.40;;;;;;;14.26;91.56;101657.78;5068990;28;20078;-75
2022/10/28 01:10:54;;;;;;;27.85;15.25;;;;;;;14.26;91.58;101653.44;5068915;28;20092;-75
2022/10/28 01:13:22;;;;;;;32.05;15.88;;;;;;;14.20;91.14;101648.03;5068926;28;20086;-75
2022/10/28 01:16:01;;;;;;;38.00;17.42;;;;;;;14.18;90.89;101651.47;5068960;28;20032;-75
2022/10/28 01:18:52;;;;;;;30.98;15.93;;;;;;;14.17;91.27;101649.72;5069043;28;20016;-75
2022/10/28 01:22:01;;;;;;;32.55;15.40;;;;;;;14.15;91.55;101654.94;5068728;28;20097;-75
2022/10/28 01:24:48;;;;;;;30.00;14.10;;;;;;;14.12;91.27;101649.63;5069040;28;20049;-75
2022/10/28 01:27:40;;;;;;;29.65;14.82;;;;;;;14.07;91.64;101649.50;5068860;28;20059;-75
2022/10/28 01:30:20;;;;;;;27.65;13.73;;;;;;;14.08;91.35;101651.28;5068782;28;20051;-75
2022/10/28 01:33:03;;;;;;;32.67;15.25;;;;;;;14.04;91.40;101654.69;5068630;28;20056;-75
2022/10/28 01:35:31;;;;;;;31.50;14.82;;;;;;;14.01;91.86;101648.50;5068949;28;20041;-75
2022/10/28 01:38:29;;;;;;;36.50;15.02;;;;;;;14.01;91.19;101644.13;5069016;28;20084;-75
2022/10/28 01:41:23;;;;;;;29.42;14.75;;;;;;;13.98;91.56;101641.47;5068742;28;20024;-75
2022/10/28 01:44:10;;;;;;;28.20;14.10;;;;;;;13.94;90.91;101644.84;5068667;28;20021;-73
2022/10/28 01:46:55;;;;;;;30.40;14.10;;;;;;;13.91;91.34;101642.16;5068831;28;20033;-75
2022/10/28 01:49:48;;;;;;;26.40;13.45;;;;;;;13.88;91.39;101640.34;5084310;28;20037;-75
2022/10/28 01:52:17;;;;;;;29.85;13.93;;;;;;;13.83;91.55;101646.34;5067527;28;21024;-76
2022/10/28 01:54:46;;;;;;;;;;;;;;;13.90;90.52;101643.00;5069238;28;20040;-75
2022/10/28 01:57:14;;;;;;;21.75;11.43;;;;;;;13.80;90.75;101643.66;5068662;28;19927;-75
2022/10/28 01:59:40;;;;;;;22.67;11.27;;;;;;;13.76;91.15;101645.31;5068808;28;20156;-75
2022/10/28 02:02:05;;;;;;;25.38;12.32;;;;;;;13.69;91.30;101641.66;5068567;28;20466;-75
2022/10/28 02:04:31;;;;;;;24.92;11.95;;;;;;;13.67;92.27;101635.53;5068576;28;20032;-75
2022/10/28 02:06:59;;;;;;;25.88;12.57;;;;;;;13.64;91.74;101637.16;5066485;28;20049;-75
2022/10/28 02:10:02;;;;;;;23.60;12.18;;;;;;;13.65;92.44;101634.59;5065380;28;20074;-75
2022/10/28 02:12:34;;;;;;;26.63;13.20;;;;;;;13.64;92.46;101637.16;5065152;28;20056;-75
2022/10/28 02:15:24;;;;;;;26.38;12.57;;;;;;;13.62;92.77;101629.28;5065382;28;20029;-76
2022/10/28 02:18:02;;;;;;;32.60;13.40;;;;;;;13.61;92.71;101632.72;5065344;28;20025;-75
2022/10/28 02:20:48;;;;;;;25.65;12.48;;;;;;;13.61;92.28;101634.47;5065464;28;20105;-75
2022/10/28 02:23:16;;;;;;;26.85;12.30;;;;;;;13.55;92.32;101627.34;5065455;28;20021;-75
2022/10/28 02:25:57;;;;;;;23.42;11.48;;;;;;;13.51;91.72;101639.50;5065016;28;20084;-75
2022/10/28 02:28:41;;;;;;;20.00;11.00;;;;;;;13.45;91.53;101621.00;5080400;28;20036;-67
2022/10/28 02:31:11;;;;;;;22.40;11.02;;;;;;;13.43;91.57;101621.84;5065016;28;20029;-67
2022/10/28 02:33:40;;;;;;;23.27;10.38;;;;;;;13.37;91.83;101627.81;5064935;28;20063;-67
2022/10/28 02:36:13;;;;;;;24.05;10.70;;;;;;;13.34;93.20;101623.38;5064835;28;20029;-67
2022/10/28 02:38:44;;;;;;;28.17;11.07;;;;;;;13.34;94.34;101618.16;5064955;28;20028;-67
2022/10/28 02:41:19;;;;;;;25.77;11.20;;;;;;;13.34;93.94;101617.25;5064292;28;20057;-67
2022/10/28 02:43:49;;;;;;;25.38;11.40;;;;;;;13.35;95.64;101617.31;5064890;28;20044;-67
2022/10/28 02:46:17;;;;;;;26.90;11.82;;;;;;;13.34;94.24;101618.16;5080145;28;20183;-68
2022/10/28 02:48:52;;;;;;;20.55;10.93;;;;;;;13.33;93.43;101616.34;5064761;28;20080;-67
2022/10/28 02:51:22;;;;;;;23.05;9.43;;;;;;;13.30;92.64;101625.84;5064501;28;20260;-67
2022/10/28 02:54:14;;;;;;;22.95;10.40;;;;;;;13.32;95.76;101619.78;5064749;28;20305;-67
2022/10/28 02:56:52;;;;;;;24.17;10.77;;;;;;;13.30;94.09;101621.50;5064521;28;20040;-67
2022/10/28 02:59:18;;;;;;;28.73;11.55;;;;;;;13.29;93.80;101617.09;5064342;28;20025;-67
2022/10/28 03:01:43;;;;;;;26.10;10.60;;;;;;;13.30;94.07;101605.78;5064565;28;20044;-67
2022/10/28 03:04:08;;;;;;;22.88;10.07;;;;;;;13.29;94.41;101611.84;5064241;28;20274;-67
2022/10/28 03:06:33;;;;;;;22.20;9.50;;;;;;;13.30;94.85;101613.63;5064482;28;20059;-67
2022/10/28 03:08:59;;;;;;;27.25;10.35;;;;;;;13.32;94.30;101611.94;5064451;28;20029;-67
2022/10/28 03:11:24;;;;;;;22.42;9.40;;;;;;;13.32;94.90;101611.94;5064061;28;20161;-68
2022/10/28 03:13:49;;;;;;;24.95;9.75;;;;;;;13.34;95.22;101612.91;5064340;28;20031;-67
2022/10/28 03:16:15;;;;;;;25.05;9.05;;;;;;;13.36;94.70;101607.72;5064123;28;20432;-67
2022/10/28 03:18:41;;;;;;;23.48;10.15;;;;;;;13.38;95.64;101604.28;5064080;28;20021;-67
2022/10/28 03:21:07;;;;;;;24.38;10.07;;;;;;;13.38;94.94;101606.91;5064067;28;20032;-67
2022/10/28 03:23:32;;;;;;;22.25;9.68;;;;;;;13.37;94.84;101604.25;5063937;28;20037;-67
2022/10/28 03:25:57;;;;;;;26.17;9.93;;;;;;;13.36;94.26;101611.19;5063975;28;20025;-67
2022/10/28 03:28:22;;;;;;;22.10;9.57;;;;;;;13.37;95.59;101612.97;5063966;28;20035;-67
2022/10/28 03:30:48;;;;;;;23.13;9.80;;;;;;;13.40;95.29;101606.94;5063776;28;20024;-67
2022/10/28 03:33:13;;;;;;;21.95;9.90;;;;;;;13.42;94.85;101601.75;5063588;28;20116;-67
2022/10/28 03:35:39;;;;;;;25.02;9.55;;;;;;;13.44;96.06;101613.13;5062779;28;20023;-67
2022/10/28 03:38:04;;;;;;;22.23;9.88;;;;;;;13.44;96.52;101608.78;5064001;28;20036;-68
2022/10/28 03:40:30;;;;;;;24.02;9.38;;;;;;;13.46;96.90;101606.22;5063582;28;20092;-68
2022/10/28 03:42:55;;;;;;;19.88;8.57;;;;;;;13.45;96.01;101605.31;5063603;28;20068;-67
2022/10/28 03:45:20;;;;;;;19.10;8.70;;;;;;;13.45;95.47;101609.66;5063917;28;20291;-68
2022/10/28 03:47:46;;;;;;;27.23;8.90;;;;;;;13.45;95.71;101604.44;5063579;28;20020;-67
2022/10/28 03:50:11;;;;;;;20.13;9.27;;;;;;;13.44;95.57;101600.94;5063397;28;20032;-67
2022/10/28 03:52:36;;;;;;;25.48;9.90;;;;;;;13.44;95.35;101602.66;5063389;28;20027;-68
2022/10/28 03:55:02;;;;;;;23.35;9.55;;;;;;;13.44;95.25;101602.66;5063456;28;20031;-68
2022/10/28 03:57:31;;;;;;;26.08;10.38;;;;;;;13.44;95.35;101605.25;5063207;28;20176;-68
2022/10/28 03:59:57;;;;;;;25.90;10.63;;;;;;;13.43;94.84;101600.91;5063384;28;20294;-67
2022/10/28 04:02:22;;;;;;;25.20;10.95;;;;;;;13.42;95.20;101596.50;5063202;28;20021;-67
2022/10/28 04:04:47;;;;;;;27.83;10.68;;;;;;;13.43;95.55;101606.13;5063420;28;20025;-67
2022/10/28 04:07:13;;;;;;;25.42;10.32;;;;;;;13.43;95.98;101601.78;5063448;28;20052;-68
2022/10/28 04:09:38;;;;;;;26.42;8.85;;;;;;;13.44;97.07;101602.66;5063291;28;20082;-68
2022/10/28 04:12:05;;;;;;;21.92;8.98;;;;;;;13.43;97.23;101595.66;5062956;28;20088;-67
2022/10/28 04:14:30;;;;;;;30.33;9.43;;;;;;;13.43;97.96;101607.00;5063059;28;20094;-68
2022/10/28 04:16:55;;;;;;;22.63;9.23;;;;;;;13.43;96.84;101596.53;5061724;28;20279;-68
2022/10/28 04:19:21;;;;;;;24.73;8.80;;;;;;;13.44;97.55;101607.88;5063052;28;20032;-67
2022/10/28 04:21:46;;;;;;;21.52;9.73;;;;;;;13.44;97.72;101607.88;5062769;28;20048;-68
2022/10/28 04:24:11;;;;;;;27.90;10.05;;;;;;;13.43;97.62;101608.75;5062875;28;20028;-67
2022/10/28 04:26:36;;;;;;;26.13;10.07;;;;;;;13.43;97.22;101611.38;5063358;28;20048;-68
2022/10/28 04:29:02;;;;;;;27.05;10.10;;;;;;;13.40;96.24;101606.94;5062081;28;20028;-68
2022/10/28 04:31:27;;;;;;;24.02;9.70;;;;;;;13.42;97.07;101604.34;5061925;28;20312;-67
2022/10/28 04:33:52;;;;;;;32.10;9.40;;;;;;;13.42;97.06;101605.22;5062455;28;20037;-67
2022/10/28 04:36:18;;;;;;;22.42;9.50;;;;;;;13.46;97.61;101614.06;5062203;28;20028;-68
2022/10/28 04:38:43;;;;;;;24.23;9.23;;;;;;;13.47;97.38;101613.19;5062081;28;20056;-67
2022/10/28 04:41:12;;;;;;;20.25;9.65;;;;;;;13.45;97.41;101610.53;5062641;28;20049;-68
2022/10/28 04:43:37;;;;;;;25.55;9.52;;;;;;;13.47;97.36;101608.84;5062737;28;20024;-68
2022/10/28 04:46:04;;;;;;;23.98;9.20;;;;;;;13.47;97.35;101618.44;5061468;28;20029;-68
2022/10/28 04:48:30;;;;;;;23.17;9.02;;;;;;;13.49;97.31;101616.75;5062591;28;20031;-67
2022/10/28 04:50:56;;;;;;;25.52;8.75;;;;;;;13.47;97.25;101603.63;5062514;28;20032;-68
2022/10/28 04:53:21;;;;;;;25.77;9.45;;;;;;;13.49;97.70;101603.66;5062211;28;20104;-68
2022/10/28 04:55:46;;;;;;;22.85;9.32;;;;;;;13.49;97.69;101607.16;5062333;28;20264;-67
2022/10/28 04:58:12;;;;;;;21.67;9.55;;;;;;;13.52;97.98;101611.59;5061870;28;20021;-68
2022/10/28 05:00:37;;;;;;;22.23;8.68;;;;;;;13.53;97.62;101603.75;5062344;28;20176;-68
2022/10/28 05:03:02;;;;;;;22.08;9.32;;;;;;;13.53;97.90;101602.88;5062446;28;20049;-68
2022/10/28 05:05:28;;;;;;;26.25;9.40;;;;;;;13.53;97.55;101603.75;5062414;28;20017;-67
2022/10/28 05:07:53;;;;;;;23.65;9.07;;;;;;;13.52;96.94;101599.38;5062522;28;20145;-76
2022/10/28 05:10:18;;;;;;;28.33;9.13;;;;;;;13.51;97.31;101599.31;5062220;28;20116;-76
2022/10/28 05:12:44;;;;;;;23.88;9.20;;;;;;;13.49;97.59;101596.69;5062579;28;20248;-76
2022/10/28 05:15:10;;;;;;;27.15;9.60;;;;;;;13.48;97.41;101604.50;5062184;28;20277;-75
2022/10/28 05:17:42;;;;;;;22.08;9.55;;;;;;;13.47;97.82;101606.25;5062160;28;20029;-76
2022/10/28 05:20:08;;;;;;;29.52;10.25;;;;;;;13.49;97.58;101601.91;5062090;28;20092;-76
2022/10/28 05:22:33;;;;;;;27.05;9.90;;;;;;;13.49;96.38;101603.66;5062388;28;20263;-75
2022/10/28 05:24:58;;;;;;;22.60;9.32;;;;;;;13.53;97.31;101608.13;5062239;28;20032;-76
2022/10/28 05:27:24;;;;;;;21.52;9.63;;;;;;;13.54;97.51;101607.25;5062121;28;20345;-76
2022/10/28 05:29:49;;;;;;;23.58;9.25;;;;;;;13.55;97.01;101595.94;5062006;28;20036;-76
2022/10/28 05:32:15;;;;;;;24.80;9.75;;;;;;;13.57;97.25;101595.13;5062246;28;20079;-76
2022/10/28 05:34:41;;;;;;;23.60;10.07;;;;;;;13.59;97.13;101589.94;5062217;28;20037;-76
2022/10/28 05:37:06;;;;;;;25.02;9.73;;;;;;;13.63;96.97;101597.00;5062011;28;20040;-76
2022/10/28 05:39:31;;;;;;;23.30;9.70;;;;;;;13.66;97.09;101590.97;5062030;28;20290;-76
2022/10/28 05:41:56;;;;;;;26.98;9.85;;;;;;;13.66;97.16;101594.47;5062053;28;20025;-75
2022/10/28 05:44:22;;;;;;;27.98;9.75;;;;;;;13.66;97.18;101589.22;5065745;28;20098;-76
2022/10/28 05:46:47;;;;;;;24.58;9.27;;;;;;;13.67;97.13;101598.84;5065945;28;20152;-76
2022/10/28 05:49:12;;;;;;;24.98;9.93;;;;;;;13.66;96.34;101594.47;5065802;28;20048;-76
2022/10/28 05:51:38;;;;;;;22.50;9.43;;;;;;;13.66;96.58;101599.69;5065714;28;20075;-76
2022/10/28 05:54:03;;;;;;;27.38;9.43;;;;;;;13.64;96.33;101595.25;5065766;28;20071;-76
2022/10/28 05:56:28;;;;;;;28.27;10.32;;;;;;;13.65;96.58;101597.91;5065481;28;20172;-76
2022/10/28 05:58:54;;;;;;;22.95;9.15;;;;;;;13.63;96.60;101588.25;5065574;28;20264;-76
2022/10/28 06:01:19;;;;;;;25.80;9.40;;;;;;;13.62;96.77;101592.63;5065482;28;20025;-76
2022/10/28 06:03:44;;;;;;;25.25;9.25;;;;;;;13.62;96.80;101589.13;5064256;28;20268;-76
2022/10/28 06:06:09;;;;;;;24.85;9.07;;;;;;;13.64;96.97;101597.88;5065339;28;20110;-75
2022/10/28 06:08:35;;;;;;;28.73;9.93;;;;;;;13.63;96.92;101594.41;5065560;28;20052;-76
2022/10/28 06:11:00;;;;;;;29.85;10.25;;;;;;;13.68;96.96;101595.38;5065098;28;20029;-76
2022/10/28 06:13:26;;;;;;;23.85;9.45;;;;;;;13.76;96.69;101597.28;5065137;28;20071;-76
2022/10/28 06:15:55;;;;;;;28.45;9.95;;;;;;;13.84;96.44;101598.34;5065180;28;20100;-75
2022/10/28 06:18:21;;;;;;;;;;;;;;;13.91;95.59;101602.88;5065779;28;20087;-76
2022/10/28 06:20:54;;;;;;;28.98;10.15;;;;;;;13.94;95.84;101605.56;5065197;28;19921;-76
2022/10/28 06:23:19;;;;;;;28.58;10.38;;;;;;;14.00;94.99;101605.69;5065074;28;20252;-75
2022/10/28 06:25:44;;;;;;;23.98;9.55;;;;;;;13.98;94.67;101604.78;5064933;28;20028;-76
2022/10/28 06:28:10;;;;;;;27.38;9.63;;;;;;;13.96;94.95;101603.88;5064812;28;20123;-76
2022/10/28 06:30:35;;;;;;;25.38;9.75;;;;;;;13.93;95.18;101605.53;5064718;28;20094;-76
2022/10/28 06:33:00;;;;;;;28.13;9.82;;;;;;;13.92;95.47;101607.25;5064771;28;20069;-76
2022/10/28 06:35:26;;;;;;;27.30;9.68;;;;;;;13.91;95.59;101610.72;5064813;28;20029;-76
2022/10/28 06:37:57;;;;;;;27.42;9.43;;;;;;;13.93;95.69;101606.41;5063920;28;20156;-76
2022/10/28 06:40:24;;;;;;;30.92;9.52;;;;;;;13.95;95.68;101606.41;5064718;28;20017;-76
2022/10/28 06:43:00;;;;;;;26.50;10.02;;;;;;;13.97;95.43;101604.75;5064625;28;20029;-76
2022/10/28 06:45:27;;;;;;;28.17;10.18;;;;;;;13.95;95.63;101602.09;5063384;28;20275;-76
2022/10/28 06:48:03;;;;;;;25.33;10.02;;;;;;;13.89;95.61;101601.97;5064780;28;20184;-76
2022/10/28 06:50:29;;;;;;;27.10;10.48;;;;;;;13.85;95.43;101605.38;5064492;28;20029;-75
2022/10/28 06:52:57;;;;;;;29.75;9.82;;;;;;;13.82;96.14;101600.94;5064154;28;20100;-76
2022/10/28 06:55:24;;;;;;;24.50;10.07;;;;;;;13.82;95.88;101600.06;5064492;28;20033;-76
2022/10/28 06:57:49;;;;;;;26.95;9.35;;;;;;;13.80;95.84;101600.03;5064607;28;20021;-76
2022/10/28 07:00:15;;;;;;;27.60;9.55;;;;;;;13.81;96.13;101598.28;5064353;28;20063;-76
2022/10/28 07:02:40;;;;;;;32.63;10.13;;;;;;;13.78;96.68;101600.84;5064440;28;20062;-76
2022/10/28 07:05:06;;;;;;;27.77;10.00;;;;;;;13.78;97.07;101600.84;5064276;28;20040;-76
2022/10/28 07:07:32;;;;;;;31.25;10.20;;;;;;;13.77;97.42;101604.28;5077108;28;20511;-67
2022/10/28 07:09:57;;;;;;;26.35;9.95;;;;;;;13.77;97.53;101609.53;5059488;28;20087;-67
2022/10/28 07:12:22;;;;;;;30.35;10.60;;;;;;;13.79;98.00;101602.56;5058788;28;20029;-68
2022/10/28 07:14:48;;;;;;;33.28;11.15;;;;;;;13.83;97.86;101607.94;5059566;28;20048;-67
2022/10/28 07:17:13;;;;;;;28.52;11.32;;;;;;;13.92;97.62;101607.25;5060827;28;20027;-68
2022/10/28 07:19:38;;;;;;;28.25;9.65;;;;;;;13.99;97.62;101598.69;5062379;28;20748;-67
2022/10/28 07:22:03;;;;;;;26.88;10.88;;;;;;;14.07;97.46;101604.97;5061595;28;20028;-67
2022/10/28 07:24:29;;;;;;;27.13;10.40;;;;;;;14.17;97.36;101606.03;5063870;28;20028;-67
2022/10/28 07:26:54;;;;;;;31.77;10.10;;;;;;;14.26;97.34;101616.75;5063903;28;20028;-67
2022/10/28 07:29:19;;;;;;;29.90;11.05;;;;;;;14.38;96.64;101623.06;5063006;28;20025;-67
2022/10/28 07:31:44;;;;;;;25.77;9.95;;;;;;;14.50;96.42;101622.47;5063841;28;20268;-67
2022/10/28 07:34:10;;;;;;;23.40;10.45;;;;;;;14.61;95.70;101626.16;5063614;28;20039;-67
2022/10/28 07:36:35;;;;;;;29.73;10.68;;;;;;;14.72;95.20;101622.03;5063676;28;20025;-68
2022/10/28 07:39:01;;;;;;;27.40;10.32;;;;;;;14.84;94.40;101625.75;5063582;28;20047;-67
2022/10/28 07:41:26;;;;;;;27.92;10.20;;;;;;;14.93;94.09;101623.28;5062175;28;20049;-67
2022/10/28 07:43:52;;;;;;;27.20;9.93;;;;;;;15.03;93.81;101619.09;5060190;28;20025;-68
2022/10/28 07:46:17;;;;;;;31.05;10.00;;;;;;;15.10;93.50;101610.47;5063273;28;20021;-67
2022/10/28 07:48:42;;;;;;;34.65;11.27;;;;;;;15.21;92.46;101613.28;5063308;28;20021;-68
2022/10/28 07:51:12;;;;;;;31.17;10.25;;;;;;;15.33;92.86;101613.47;5063247;28;20052;-67
2022/10/28 07:53:37;;;;;;;;;;;;;;;15.42;92.71;101607.47;5063765;28;20170;-68
2022/10/28 07:56:08;;;;;;;36.20;10.63;;;;;;;15.51;92.75;101591.88;5063753;28;20171;-68
2022/10/28 07:58:34;;;;;;;40.22;12.18;;;;;;;15.60;91.86;101601.66;5063619;28;20029;-68
2022/10/28 08:01:05;;;;;;;29.45;9.98;;;;;;;15.69;91.16;101587.75;5063376;28;20034;-67
2022/10/28 08:03:31;;;;;;;32.25;11.00;;;;;;;15.77;90.50;101597.53;5063684;28;20025;-68
2022/10/28 08:06:00;;;;;;;27.80;10.18;;;;;;;15.89;90.23;101601.19;5062468;28;20028;-67
2022/10/28 08:08:26;;;;;;;32.67;10.77;;;;;;;15.99;90.33;101608.38;5063411;28;20048;-75
2022/10/28 08:10:51;;;;;;;30.13;10.90;;;;;;;16.07;90.28;101603.19;5063157;28;20302;-76
2022/10/28 08:13:16;;;;;;;27.15;10.65;;;;;;;16.12;89.25;101602.41;5062982;28;20037;-75
2022/10/28 08:15:41;;;;;;;31.88;10.98;;;;;;;16.20;88.58;101605.13;5063157;28;20025;-76
2022/10/28 08:18:07;;;;;;;28.58;10.38;;;;;;;16.27;88.24;101611.34;5062952;28;20187;-76
2022/10/28 08:20:32;;;;;;;30.63;10.25;;;;;;;16.31;87.87;101627.19;5062904;28;20033;-76
2022/10/28 08:22:57;;;;;;;28.23;10.43;;;;;;;16.35;88.09;101620.19;5062655;28;20028;-74
2022/10/28 08:25:23;;;;;;;29.52;10.73;;;;;;;16.40;87.99;101629.03;5062689;28;20063;-75
2022/10/28 08:27:48;;;;;;;26.98;10.40;;;;;;;16.46;88.09;101634.38;5062761;28;20025;-75
2022/10/28 08:30:13;;;;;;;28.10;9.75;;;;;;;16.49;87.44;101626.50;5062636;28;20112;-76
2022/10/28 08:32:39;;;;;;;32.45;10.35;;;;;;;16.51;87.57;101631.78;5062949;28;20040;-76
2022/10/28 08:35:04;;;;;;;31.75;10.23;;;;;;;16.52;87.70;101618.69;5062778;28;20112;-75
2022/10/28 08:37:30;;;;;;;23.23;10.50;;;;;;;16.56;87.34;101630.09;5062707;28;20238;-67
2022/10/28 08:39:55;;;;;;;36.03;10.48;;;;;;;16.59;87.51;101634.53;5062764;28;20023;-68
2022/10/28 08:42:38;;;;;;;33.28;10.85;;;;;;;16.59;87.68;101621.38;5062560;28;20023;-68
2022/10/28 08:45:19;;;;;;;29.58;10.77;;;;;;;16.62;87.63;101629.28;5062710;28;20017;-67
2022/10/28 08:47:51;;;;;;;25.35;9.50;;;;;;;16.64;87.35;101624.91;5062626;28;20352;-67
2022/10/28 08:50:21;;;;;;;31.70;10.50;;;;;;;16.66;87.37;101616.19;5062711;28;20036;-67
2022/10/28 08:52:54;;;;;;;29.27;10.30;;;;;;;16.73;87.45;101616.22;5062546;28;20095;-68
2022/10/28 08:55:38;;;;;;;37.40;10.48;;;;;;;16.78;87.69;101610.16;5062560;28;20021;-67
2022/10/28 08:58:12;;;;;;;28.48;10.18;;;;;;;16.85;87.27;101616.38;5062569;28;20092;-67
2022/10/28 09:00:39;;;;;;;28.77;9.77;;;;;;;16.92;87.64;101612.97;5062480;28;20017;-67
2022/10/28 09:03:12;;;;;;;28.08;11.05;;;;;;;17.00;87.74;101623.56;5062354;28;20017;-67
2022/10/28 09:05:39;;;;;;;29.95;10.82;;;;;;;17.07;87.56;101622.75;5062230;28;20153;-68
2022/10/28 09:08:08;;;;;;;32.17;11.15;;;;;;;17.17;87.59;101629.00;5062398;28;20063;-67
2022/10/28 09:10:53;;;;;;;29.25;9.60;;;;;;;17.26;86.51;101633.47;5062108;28;20047;-67
2022/10/28 09:13:43;;;;;;;27.48;9.63;;;;;;;17.34;86.11;101632.66;5061782;28;20033;-68
2022/10/28 09:16:13;;;;;;;28.83;9.70;;;;;;;17.47;85.46;101636.28;5062474;28;20028;-67
2022/10/28 09:18:53;;;;;;;25.02;10.05;;;;;;;17.55;86.58;101634.59;5066309;28;20084;-68
2022/10/28 09:21:52;;;;;;;26.08;9.25;;;;;;;17.66;85.50;101636.41;5066307;28;20032;-67
2022/10/28 09:24:33;;;;;;;26.80;9.63;;;;;;;17.82;84.60;101640.03;5063920;28;20190;-67
2022/10/28 09:27:20;;;;;;;24.67;9.65;;;;;;;17.93;84.66;101642.75;5066157;28;20271;-67
2022/10/28 09:30:01;;;;;;;27.45;9.55;;;;;;;18.06;83.18;101636.66;5066376;28;20145;-67
2022/10/28 09:32:45;;;;;;;23.40;9.43;;;;;;;18.17;83.36;101637.63;5065827;28;20059;-68
2022/10/28 09:35:15;;;;;;;25.52;9.00;;;;;;;18.21;81.63;101642.03;5065982;28;20040;-67
2022/10/28 09:37:46;;;;;;;27.05;9.45;;;;;;;18.25;82.01;101648.22;5065941;28;20106;-75
2022/10/28 09:40:25;;;;;;;27.27;9.68;;;;;;;18.24;80.84;101644.69;5065891;28;20028;-75
2022/10/28 09:43:18;;;;;;;25.80;9.75;;;;;;;18.28;81.52;101652.59;5066080;28;20315;-75
2022/10/28 09:45:47;;;;;;;29.45;10.68;;;;;;;18.29;80.64;101649.09;5065954;28;20057;-75
2022/10/28 09:48:21;;;;;;;28.95;9.73;;;;;;;18.31;81.15;101648.25;5065706;28;20052;-75
2022/10/28 09:50:53;;;;;;;30.52;9.57;;;;;;;18.36;80.45;101635.94;5065691;28;20040;-75
2022/10/28 09:53:43;;;;;;;28.48;9.80;;;;;;;18.41;81.48;101650.03;5065596;28;20029;-75
2022/10/28 09:56:09;;;;;;;30.40;11.32;;;;;;;18.47;80.30;101648.31;5065703;28;20222;-75
2022/10/28 09:58:37;;;;;;;25.60;9.82;;;;;;;18.52;80.38;101650.06;5065569;28;20025;-74
2022/10/28 10:01:03;;;;;;;30.87;9.80;;;;;;;18.59;79.89;101640.41;5064784;28;20021;-74
2022/10/28 10:03:29;;;;;;;33.75;10.38;;;;;;;18.65;79.01;101652.75;5064509;28;20028;-74
2022/10/28 10:05:57;;;;;;;29.35;10.40;;;;;;;18.72;78.40;101643.97;5065905;28;20086;-74
2022/10/28 10:08:23;;;;;;;27.65;8.95;;;;;;;18.79;78.25;101643.13;5065337;28;20272;-75
2022/10/28 10:11:03;;;;;;;25.33;8.57;;;;;;;18.86;79.55;101646.66;5065305;28;20054;-75
2022/10/28 10:13:34;;;;;;;24.92;8.55;;;;;;;18.89;77.72;101639.66;5065301;28;20086;-74
2022/10/28 10:16:05;;;;;;;25.23;9.27;;;;;;;18.98;76.91;101646.72;5065303;28;20045;-74
2022/10/28 10:18:31;;;;;;;32.38;9.15;;;;;;;19.04;76.99;101645.84;5065177;28;20029;-75
2022/10/28 10:20:58;;;;;;;28.85;9.50;;;;;;;19.11;77.14;101642.31;5065210;28;20040;-74
2022/10/28 10:23:34;;;;;;;28.40;9.50;;;;;;;19.18;76.81;101637.94;5064936;28;20268;-74
2022/10/28 10:26:12;;;;;;;24.83;10.05;;;;;;;19.26;77.21;101641.44;5065094;28;20017;-75
2022/10/28 10:28:43;;;;;;;28.60;9.20;;;;;;;19.36;76.30;101629.13;5064219;28;20044;-75
2022/10/28 10:31:25;;;;;;;25.92;8.60;;;;;;;19.47;75.91;101635.28;5064854;28;20124;-73
2022/10/28 10:33:54;;;;;;;24.95;8.77;;;;;;;19.55;76.23;101636.19;5080370;28;20203;-75
2022/10/28 10:36:22;;;;;;;24.27;8.60;;;;;;;19.62;74.81;101630.00;5064870;28;20343;-68
2022/10/28 10:38:55;;;;;;;26.10;8.40;;;;;;;19.69;75.45;101629.97;5065155;28;20051;-67
2022/10/28 10:41:36;;;;;;;30.02;9.50;;;;;;;19.75;74.83;101630.81;5064650;28;20025;-67
2022/10/28 10:44:21;;;;;;;24.52;8.25;;;;;;;19.81;75.01;101619.41;5064771;28;20021;-67
2022/10/28 10:46:58;;;;;;;22.65;8.65;;;;;;;19.91;74.22;101607.91;5064560;28;20033;-67
2022/10/28 10:49:24;;;;;;;31.55;8.20;;;;;;;20.00;72.63;101611.41;5064400;28;20207;-67
2022/10/28 10:51:51;;;;;;;26.67;8.00;;;;;;;20.09;70.75;101606.13;5047038;28;20196;-67
2022/10/28 10:54:18;;;;;;;23.27;8.70;;;;;;;20.16;70.62;101599.91;5064534;28;20033;-67
2022/10/28 10:56:43;;;;;;;23.67;8.02;;;;;;;20.19;70.55;101597.25;5063387;28;20029;-67
2022/10/28 10:59:28;;;;;;;20.33;7.55;;;;;;;20.27;70.60;101600.72;5064532;28;20283;-67
2022/10/28 11:01:56;;;;;;;28.08;8.65;;;;;;;20.35;70.30;101620.97;5064372;28;20021;-67
2022/10/28 11:04:25;;;;;;;24.25;8.40;;;;;;;20.44;68.54;101618.31;5064675;28;20035;-67
2022/10/28 11:06:53;;;;;;;24.65;8.43;;;;;;;20.50;69.25;101619.13;5064604;28;20040;-68
2022/10/28 11:09:34;;;;;;;26.90;7.88;;;;;;;20.57;68.96;101625.28;5064153;28;20045;-68
2022/10/28 11:12:00;;;;;;;24.77;8.13;;;;;;;20.66;69.32;101622.59;5062837;28;20048;-67
2022/10/28 11:14:31;;;;;;;19.27;7.88;;;;;;;20.73;68.39;101619.94;5063197;28;20033;-67
2022/10/28 11:16:58;;;;;;;25.55;8.40;;;;;;;20.74;68.98;101611.09;5064231;28;20075;-67
2022/10/28 11:19:31;;;;;;;28.92;7.90;;;;;;;20.72;69.47;101608.44;5064526;28;20127;-68
2022/10/28 11:22:18;;;;;;;20.60;8.15;;;;;;;20.71;70.08;101600.53;5064051;28;20032;-68
2022/10/28 11:25:20;;;;;;;24.08;8.95;;;;;;;20.70;69.58;101598.75;5064095;28;20059;-68
2022/10/28 11:28:19;;;;;;;19.65;8.23;;;;;;;20.64;68.61;101594.38;5063803;28;20051;-68